Time;durP1;ratioP1;P1;durP2;ratioP2;P2;SDS_P1;SDS_P2;PMS_P1;PMS_P2;Temp;Humidity;BMP_temperature;BMP_pressure;BME280_temperature;BME280_humidity;BME280_pressure;Samples;Min_cycle;Max_cycle;Signal;HPM_P1;HPM_P2
2022/04/02 00:01:21;;;;;;;11.73;10.53;;;;;;;;;;4922191;28;20290;-60
2022/04/02 00:03:47;;;;;;;12.10;9.33;;;;;;;;;;4920910;28;20195;-61
2022/04/02 00:06:13;;;;;;;12.07;9.17;;;;;;;;;;4929858;28;20223;-60
2022/04/02 00:08:39;;;;;;;10.17;9.13;;;;;;;;;;4927996;28;20323;-61
2022/04/02 00:11:05;;;;;;;9.70;8.70;;;;;;;;;;4927703;28;20255;-61
2022/04/02 00:13:31;;;;;;;9.70;8.70;;;;;;;;;;4925291;28;20200;-61
2022/04/02 00:15:58;;;;;;;10.50;8.13;;;;;;;;;;4925815;28;20233;-61
2022/04/02 00:18:24;;;;;;;9.37;8.30;;;;;;;;;;4930772;28;20223;-61
2022/04/02 00:20:50;;;;;;;10.63;7.93;;;;;;;;;;4923860;28;20274;-61
2022/04/02 00:26:02;;;;;;;10.17;7.70;;;;;;;;;;4931233;28;20614;-61
2022/04/02 00:28:28;;;;;;;8.03;7.23;;;;;;;;;;4928306;28;20274;-61
2022/04/02 00:30:54;;;;;;;9.47;7.67;;;;;;;;;;4928077;28;20192;-61
2022/04/02 00:33:20;;;;;;;8.23;7.43;;;;;;;;;;4930022;28;20613;-61
2022/04/02 00:35:46;;;;;;;8.63;7.10;;;;;;;;;;4931403;28;20249;-61
2022/04/02 00:38:11;;;;;;;8.00;7.20;;;;;;;;;;4934080;28;20892;-61
2022/04/02 00:40:42;;;;;;;7.60;6.43;;;;;;;;;;4930715;28;20461;-61
2022/04/02 00:43:08;;;;;;;11.23;6.60;;;;;;;;;;4928845;28;20649;-62
2022/04/02 00:45:34;;;;;;;7.50;6.20;;;;;;;;;;4932898;28;20203;-61
2022/04/02 00:48:00;;;;;;;7.83;6.67;;;;;;;;;;4927578;28;20602;-61
2022/04/02 00:50:27;;;;;;;8.03;6.30;;;;;;;;;;4931758;28;20206;-61
2022/04/02 00:52:53;;;;;;;8.27;6.50;;;;;;;;;;4921512;28;20640;-60
2022/04/02 00:55:19;;;;;;;7.03;6.03;;;;;;;;;;4923001;28;20745;-59
2022/04/02 00:57:45;;;;;;;8.03;6.20;;;;;;;;;;4921701;28;20188;-61
2022/04/02 01:00:11;;;;;;;7.70;5.70;;;;;;;;;;4926762;28;20192;-60
2022/04/02 01:02:37;;;;;;;8.80;5.97;;;;;;;;;;4925034;28;20291;-61
2022/04/02 01:05:04;;;;;;;10.80;6.27;;;;;;;;;;4922445;28;20184;-60
2022/04/02 01:07:29;;;;;;;8.27;5.60;;;;;;;;;;4924032;28;20200;-59
2022/04/02 01:09:55;;;;;;;7.10;5.90;;;;;;;;;;4923546;28;20205;-60
2022/04/02 01:12:24;;;;;;;8.37;5.93;;;;;;;;;;4926342;28;20198;-60
2022/04/02 01:14:50;;;;;;;6.63;5.93;;;;;;;;;;4923155;28;20203;-61
2022/04/02 01:17:16;;;;;;;5.77;5.17;;;;;;;;;;4926950;28;20223;-61
2022/04/02 01:19:42;;;;;;;6.83;5.50;;;;;;;;;;4932077;28;20203;-61
2022/04/02 01:22:09;;;;;;;7.27;5.57;;;;;;;;;;4930462;28;20204;-61
2022/04/02 01:24:35;;;;;;;6.13;5.53;;;;;;;;;;4921130;28;20301;-60
2022/04/02 01:27:09;;;;;;;6.77;6.07;;;;;;;;;;5019428;28;20681;-59
2022/04/02 01:29:35;;;;;;;6.37;5.50;;;;;;;;;;5016071;28;20918;-58
2022/04/02 01:32:01;;;;;;;7.13;5.70;;;;;;;;;;5019724;28;20578;-57
2022/04/02 01:34:31;;;;;;;6.57;5.70;;;;;;;;;;5021065;28;20572;-57
2022/04/02 01:36:57;;;;;;;10.10;6.07;;;;;;;;;;5018105;28;20611;-58
2022/04/02 01:39:23;;;;;;;6.73;5.23;;;;;;;;;;5022343;28;20243;-58
2022/04/02 01:41:49;;;;;;;8.13;5.57;;;;;;;;;;5024809;28;20199;-58
2022/04/02 01:44:15;;;;;;;6.17;5.30;;;;;;;;;;5020898;28;20223;-59
2022/04/02 01:46:41;;;;;;;6.53;5.80;;;;;;;;;;5018314;28;20217;-58
2022/04/02 01:49:07;;;;;;;6.03;5.43;;;;;;;;;;5021742;28;20736;-59
2022/04/02 01:51:33;;;;;;;6.87;5.07;;;;;;;;;;5021542;28;20191;-58
2022/04/02 01:53:59;;;;;;;6.10;5.20;;;;;;;;;;5020582;28;20410;-58
2022/04/02 01:56:25;;;;;;;7.67;5.30;;;;;;;;;;5023056;28;20270;-59
2022/04/02 01:58:51;;;;;;;8.33;4.97;;;;;;;;;;5015404;28;20279;-59
2022/04/02 02:01:16;;;;;;;7.27;5.07;;;;;;;;;;5013749;28;20299;-59
2022/04/02 02:03:42;;;;;;;7.13;5.37;;;;;;;;;;5012050;28;20193;-57
2022/04/02 02:06:08;;;;;;;6.33;5.30;;;;;;;;;;5010306;28;20217;-59
2022/04/02 02:08:34;;;;;;;6.60;5.23;;;;;;;;;;5009253;28;20194;-58
2022/04/02 02:11:00;;;;;;;7.77;5.27;;;;;;;;;;5008158;28;20267;-57
2022/04/02 02:13:26;;;;;;;6.63;5.27;;;;;;;;;;5013122;28;20212;-58
2022/04/02 02:15:52;;;;;;;6.67;4.50;;;;;;;;;;5013790;28;20251;-57
2022/04/02 02:18:18;;;;;;;7.97;5.17;;;;;;;;;;5015563;28;20200;-58
2022/04/02 02:20:44;;;;;;;7.93;5.37;;;;;;;;;;5015300;28;20193;-58
2022/04/02 02:23:10;;;;;;;5.37;4.70;;;;;;;;;;5007732;28;20824;-57
2022/04/02 02:25:36;;;;;;;7.20;4.80;;;;;;;;;;5011535;28;20603;-58
2022/04/02 02:28:04;;;;;;;6.27;5.10;;;;;;;;;;5020949;28;20188;-57
2022/04/02 02:30:30;;;;;;;5.73;5.10;;;;;;;;;;5016904;28;20337;-58
2022/04/02 02:35:49;;;;;;;8.53;4.57;;;;;;;;;;5019551;28;20738;-58
2022/04/02 02:38:15;;;;;;;8.17;5.37;;;;;;;;;;5009656;28;20181;-59
2022/04/02 02:40:41;;;;;;;7.17;4.83;;;;;;;;;;5008764;28;20193;-58
2022/04/02 02:43:08;;;;;;;4.67;4.17;;;;;;;;;;5009492;28;20655;-58
2022/04/02 02:45:34;;;;;;;7.57;4.87;;;;;;;;;;4995654;28;20219;-58
2022/04/02 02:48:00;;;;;;;7.27;4.93;;;;;;;;;;4995578;28;20194;-59
2022/04/02 02:50:26;;;;;;;5.70;5.10;;;;;;;;;;5004450;28;20196;-58
2022/04/02 02:52:52;;;;;;;8.37;4.67;;;;;;;;;;4996165;28;20227;-59
2022/04/02 02:55:18;;;;;;;5.40;4.90;;;;;;;;;;5003008;28;20220;-58
2022/04/02 02:57:44;;;;;;;5.80;4.60;;;;;;;;;;5003450;28;20193;-57
2022/04/02 03:00:11;;;;;;;7.83;4.60;;;;;;;;;;4993423;28;20200;-58
2022/04/02 03:02:39;;;;;;;5.27;4.77;;;;;;;;;;4992455;28;20736;-59
2022/04/02 03:05:11;;;;;;;7.33;4.63;;;;;;;;;;5003924;28;20224;-59
2022/04/02 03:07:37;;;;;;;8.20;4.77;;;;;;;;;;5000106;28;20220;-59
2022/04/02 03:10:04;;;;;;;6.77;4.33;;;;;;;;;;4999322;28;20205;-58
2022/04/02 03:12:29;;;;;;;5.83;4.87;;;;;;;;;;5005529;28;20943;-59
2022/04/02 03:14:56;;;;;;;5.17;4.20;;;;;;;;;;5000601;28;20192;-58
2022/04/02 03:17:22;;;;;;;7.60;4.53;;;;;;;;;;4996467;28;20901;-59
2022/04/02 03:19:48;;;;;;;5.67;4.13;;;;;;;;;;4986423;28;20198;-59
2022/04/02 03:22:14;;;;;;;7.43;4.67;;;;;;;;;;4989715;28;20348;-58
2022/04/02 03:24:40;;;;;;;6.67;4.53;;;;;;;;;;4991264;28;20229;-59
2022/04/02 03:27:06;;;;;;;6.27;4.67;;;;;;;;;;5002315;28;20240;-57
2022/04/02 03:29:32;;;;;;;5.87;4.67;;;;;;;;;;5008863;28;20847;-59
2022/04/02 03:31:58;;;;;;;5.17;4.50;;;;;;;;;;5020540;28;20724;-58
2022/04/02 03:34:24;;;;;;;5.57;4.60;;;;;;;;;;5005130;28;20197;-59
2022/04/02 03:36:50;;;;;;;7.50;4.77;;;;;;;;;;5008996;28;20247;-58
2022/04/02 03:39:16;;;;;;;9.87;4.53;;;;;;;;;;5007018;28;20686;-57
2022/04/02 03:41:42;;;;;;;5.20;3.93;;;;;;;;;;5007245;28;20788;-59
2022/04/02 03:44:08;;;;;;;6.13;4.30;;;;;;;;;;5007546;28;20186;-58
2022/04/02 03:49:19;;;;;;;5.20;4.50;;;;;;;;;;4990517;28;20681;-58
2022/04/02 03:51:45;;;;;;;4.50;4.10;;;;;;;;;;5000408;28;20223;-59
2022/04/02 03:54:11;;;;;;;4.30;3.90;;;;;;;;;;4993425;28;20272;-59
2022/04/02 03:56:37;;;;;;;5.60;4.10;;;;;;;;;;4996222;28;20193;-59
2022/04/02 03:59:03;;;;;;;4.53;4.13;;;;;;;;;;4990896;28;20371;-59
2022/04/02 04:01:29;;;;;;;5.67;3.80;;;;;;;;;;4997695;28;20215;-59
2022/04/02 04:03:55;;;;;;;5.13;4.00;;;;;;;;;;4999059;28;20945;-59
2022/04/02 04:06:21;;;;;;;6.10;4.10;;;;;;;;;;4994652;28;20290;-58
2022/04/02 04:08:47;;;;;;;5.53;3.90;;;;;;;;;;4997584;28;20193;-58
2022/04/02 04:11:14;;;;;;;4.70;4.10;;;;;;;;;;4996071;28;20271;-57
2022/04/02 04:13:40;;;;;;;6.57;4.10;;;;;;;;;;4999465;28;20188;-58
2022/04/02 04:16:07;;;;;;;4.40;3.40;;;;;;;;;;5005217;28;20263;-58
2022/04/02 04:18:34;;;;;;;6.97;3.80;;;;;;;;;;5001243;28;20193;-58
2022/04/02 04:21:00;;;;;;;5.43;3.90;;;;;;;;;;5007587;28;20243;-58
2022/04/02 04:23:26;;;;;;;4.00;3.60;;;;;;;;;;5002966;28;20268;-58
2022/04/02 04:25:52;;;;;;;4.97;3.73;;;;;;;;;;4993864;28;20750;-58
2022/04/02 04:28:18;;;;;;;5.43;3.90;;;;;;;;;;5009203;28;20225;-58
2022/04/02 04:30:45;;;;;;;5.63;3.80;;;;;;;;;;5004054;28;20207;-58
2022/04/02 04:33:12;;;;;;;5.63;3.70;;;;;;;;;;5005860;28;20186;-58
2022/04/02 04:35:38;;;;;;;6.67;3.67;;;;;;;;;;5000048;28;20194;-57
2022/04/02 04:38:04;;;;;;;4.60;3.93;;;;;;;;;;5006935;28;20193;-57
2022/04/02 04:40:30;;;;;;;5.00;3.77;;;;;;;;;;5005280;28;20318;-58
2022/04/02 04:42:56;;;;;;;5.00;3.93;;;;;;;;;;5005739;28;20281;-58
2022/04/02 04:45:22;;;;;;;4.57;3.53;;;;;;;;;;5006532;28;20221;-57
2022/04/02 04:47:48;;;;;;;5.27;3.90;;;;;;;;;;5008743;28;20185;-58
2022/04/02 04:50:14;;;;;;;4.93;3.70;;;;;;;;;;4994589;28;20195;-58
2022/04/02 04:52:40;;;;;;;4.83;3.87;;;;;;;;;;5007009;28;20650;-58
2022/04/02 04:55:07;;;;;;;4.40;3.47;;;;;;;;;;5006230;28;20189;-58
2022/04/02 04:57:32;;;;;;;7.23;4.00;;;;;;;;;;5004933;28;20267;-59
2022/04/02 04:59:58;;;;;;;5.43;3.60;;;;;;;;;;4994878;28;20201;-58
2022/04/02 05:02:24;;;;;;;3.97;3.37;;;;;;;;;;4986271;28;20315;-58
2022/04/02 05:04:50;;;;;;;6.33;4.20;;;;;;;;;;4998971;28;20247;-56
2022/04/02 05:07:18;;;;;;;4.47;3.47;;;;;;;;;;4996389;28;20252;-57
2022/04/02 05:09:45;;;;;;;3.60;3.30;;;;;;;;;;4997485;28;20267;-58
2022/04/02 05:12:11;;;;;;;4.00;3.53;;;;;;;;;;5001893;28;20197;-57
2022/04/02 05:14:37;;;;;;;5.27;3.60;;;;;;;;;;5005897;28;20189;-58
2022/04/02 05:17:03;;;;;;;5.47;3.63;;;;;;;;;;5000883;28;20775;-58
2022/04/02 05:19:29;;;;;;;4.83;3.20;;;;;;;;;;4994359;28;20197;-58
2022/04/02 05:21:55;;;;;;;6.27;3.73;;;;;;;;;;4993605;28;20197;-58
2022/04/02 05:24:22;;;;;;;4.27;3.33;;;;;;;;;;4994837;28;20227;-58
2022/04/02 05:26:49;;;;;;;3.90;3.13;;;;;;;;;;4998374;28;20244;-57
2022/04/02 05:29:15;;;;;;;5.00;3.47;;;;;;;;;;5006237;28;20300;-58
2022/04/02 05:31:41;;;;;;;3.90;3.27;;;;;;;;;;5005579;28;20198;-58
2022/04/02 05:34:08;;;;;;;3.57;3.23;;;;;;;;;;5001351;28;20706;-58
2022/04/02 05:36:34;;;;;;;3.80;3.40;;;;;;;;;;4995468;28;20642;-58
2022/04/02 05:39:00;;;;;;;4.83;3.37;;;;;;;;;;4995744;28;20248;-58
2022/04/02 05:41:26;;;;;;;4.43;3.20;;;;;;;;;;4993260;28;20201;-58
2022/04/02 05:43:52;;;;;;;4.60;3.33;;;;;;;;;;4997993;28;20198;-59
2022/04/02 05:46:18;;;;;;;3.67;3.37;;;;;;;;;;4996324;28;20224;-57
2022/04/02 05:48:44;;;;;;;3.70;3.30;;;;;;;;;;4998562;28;20194;-59
2022/04/02 05:51:10;;;;;;;4.20;3.37;;;;;;;;;;4993181;28;20564;-58
2022/04/02 05:53:36;;;;;;;4.73;3.57;;;;;;;;;;4995444;28;20685;-58
2022/04/02 05:56:02;;;;;;;5.47;3.40;;;;;;;;;;5006662;28;20208;-57
2022/04/02 05:58:28;;;;;;;4.07;3.67;;;;;;;;;;5006680;28;20224;-59
2022/04/02 06:00:54;;;;;;;3.80;3.33;;;;;;;;;;5007722;28;20557;-59
2022/04/02 06:03:20;;;;;;;5.90;3.20;;;;;;;;;;5003987;28;20865;-59
2022/04/02 06:05:49;;;;;;;4.83;3.50;;;;;;;;;;5004067;28;20217;-58
2022/04/02 06:08:16;;;;;;;4.37;3.60;;;;;;;;;;4980091;28;20205;-57
2022/04/02 06:10:44;;;;;;;3.97;3.57;;;;;;;;;;4993335;28;20197;-57
2022/04/02 06:13:11;;;;;;;4.33;3.40;;;;;;;;;;4998061;28;20295;-57
2022/04/02 06:15:37;;;;;;;3.83;3.23;;;;;;;;;;4998076;28;20323;-57
2022/04/02 06:18:03;;;;;;;5.00;3.13;;;;;;;;;;5005157;28;20204;-57
2022/04/02 06:20:29;;;;;;;7.77;3.43;;;;;;;;;;4997094;28;20677;-57
2022/04/02 06:22:55;;;;;;;6.63;3.83;;;;;;;;;;5001331;28;20201;-57
2022/04/02 06:25:21;;;;;;;4.23;3.47;;;;;;;;;;4999095;28;20379;-57
2022/04/02 06:27:47;;;;;;;5.83;3.70;;;;;;;;;;5005525;28;20617;-57
2022/04/02 06:30:14;;;;;;;3.73;3.37;;;;;;;;;;5002262;28;20824;-57
2022/04/02 06:32:40;;;;;;;4.00;3.60;;;;;;;;;;5005759;28;20961;-57
2022/04/02 06:35:06;;;;;;;6.13;3.50;;;;;;;;;;5000421;28;20216;-57
2022/04/02 06:37:33;;;;;;;3.50;3.20;;;;;;;;;;4992947;28;20197;-58
2022/04/02 06:39:59;;;;;;;3.53;3.20;;;;;;;;;;5004305;28;20196;-57
2022/04/02 06:42:25;;;;;;;3.87;3.47;;;;;;;;;;4998306;28;20193;-57
2022/04/02 06:44:51;;;;;;;3.60;3.27;;;;;;;;;;4999642;28;20193;-57
2022/04/02 06:47:17;;;;;;;3.47;3.17;;;;;;;;;;5005535;28;20323;-56
2022/04/02 06:49:43;;;;;;;3.60;3.30;;;;;;;;;;5006357;28;20745;-56
2022/04/02 06:52:09;;;;;;;3.40;3.10;;;;;;;;;;4999762;28;20200;-57
2022/04/02 06:54:35;;;;;;;3.90;3.13;;;;;;;;;;4997238;28;20196;-57
2022/04/02 06:57:01;;;;;;;4.10;3.33;;;;;;;;;;5007247;28;20185;-56
2022/04/02 06:59:27;;;;;;;4.47;2.80;;;;;;;;;;5008742;28;20189;-57
2022/04/02 07:01:53;;;;;;;4.10;3.23;;;;;;;;;;5006982;28;20207;-57
2022/04/02 07:04:19;;;;;;;3.57;3.07;;;;;;;;;;5005525;28;20208;-57
2022/04/02 07:06:45;;;;;;;4.63;3.40;;;;;;;;;;5001904;28;20220;-57
2022/04/02 07:09:14;;;;;;;4.37;3.20;;;;;;;;;;5007067;28;20197;-57
2022/04/02 07:11:40;;;;;;;4.77;3.57;;;;;;;;;;4998401;28;20706;-57
2022/04/02 07:14:06;;;;;;;4.30;3.10;;;;;;;;;;5001763;28;20189;-57
2022/04/02 07:16:32;;;;;;;6.90;3.60;;;;;;;;;;5004097;28;20189;-57
2022/04/02 07:18:58;;;;;;;5.47;3.27;;;;;;;;;;5006605;28;20211;-57
2022/04/02 07:21:25;;;;;;;6.90;3.53;;;;;;;;;;5009014;28;20197;-57
2022/04/02 07:23:51;;;;;;;5.30;3.27;;;;;;;;;;5011365;28;20202;-57
2022/04/02 07:26:17;;;;;;;4.10;3.30;;;;;;;;;;4999703;28;20760;-57
2022/04/02 07:28:43;;;;;;;6.53;4.00;;;;;;;;;;5011501;28;20604;-57
2022/04/02 07:31:09;;;;;;;4.80;3.43;;;;;;;;;;5014218;28;20804;-57
2022/04/02 07:33:35;;;;;;;4.73;3.33;;;;;;;;;;4986220;28;20204;-57
2022/04/02 07:36:10;;;;;;;3.40;3.10;;;;;;;;;;5004463;28;20213;-57
2022/04/02 07:38:36;;;;;;;3.60;3.17;;;;;;;;;;5004311;28;20208;-57
2022/04/02 07:41:08;;;;;;;4.23;3.27;;;;;;;;;;5000401;28;20200;-57
2022/04/02 07:43:41;;;;;;;4.67;3.10;;;;;;;;;;5007689;28;20190;-58
2022/04/02 07:46:08;;;;;;;4.87;3.20;;;;;;;;;;5002099;28;20214;-58
2022/04/02 07:48:36;;;;;;;5.23;3.10;;;;;;;;;;4999979;28;20748;-58
2022/04/02 07:51:04;;;;;;;5.03;3.20;;;;;;;;;;5005915;28;20208;-57
2022/04/02 07:53:31;;;;;;;3.47;3.17;;;;;;;;;;4999021;28;20193;-57
2022/04/02 07:55:57;;;;;;;3.83;3.33;;;;;;;;;;4999220;28;20201;-57
2022/04/02 07:58:31;;;;;;;3.60;2.90;;;;;;;;;;5005080;28;20658;-58
2022/04/02 08:00:57;;;;;;;4.13;2.90;;;;;;;;;;4996661;28;20210;-57
2022/04/02 08:03:24;;;;;;;4.43;3.57;;;;;;;;;;5000469;28;20200;-58
2022/04/02 08:05:50;;;;;;;4.67;3.20;;;;;;;;;;4992922;28;20225;-57
2022/04/02 08:08:16;;;;;;;3.03;2.83;;;;;;;;;;5001625;28;20180;-57
2022/04/02 08:10:45;;;;;;;3.30;3.00;;;;;;;;;;4995207;28;20192;-58
2022/04/02 08:13:12;;;;;;;3.67;3.03;;;;;;;;;;5001434;28;20250;-57
2022/04/02 08:15:38;;;;;;;4.27;3.07;;;;;;;;;;4998300;28;20193;-57
2022/04/02 08:18:05;;;;;;;4.53;3.03;;;;;;;;;;5002276;28;20186;-57
2022/04/02 08:20:31;;;;;;;3.90;2.80;;;;;;;;;;5007674;28;20208;-57
2022/04/02 08:22:57;;;;;;;5.30;3.23;;;;;;;;;;5008211;28;20205;-57
2022/04/02 08:25:23;;;;;;;7.87;3.70;;;;;;;;;;5006832;28;20690;-57
2022/04/02 08:27:52;;;;;;;3.23;2.73;;;;;;;;;;4999156;28;20185;-57
2022/04/02 08:30:37;;;;;;;3.67;3.37;;;;;;;;;;5003539;28;20198;-57
2022/04/02 08:33:12;;;;;;;3.43;2.97;;;;;;;;;;4999649;28;20284;-58
2022/04/02 08:35:44;;;;;;;3.43;3.13;;;;;;;;;;5001961;28;20197;-57
2022/04/02 08:38:32;;;;;;;4.53;2.80;;;;;;;;;;5004460;28;20197;-57
2022/04/02 08:41:16;;;;;;;4.13;2.90;;;;;;;;;;5003450;28;20204;-57
2022/04/02 08:43:52;;;;;;;3.13;2.77;;;;;;;;;;5002354;28;20201;-57
2022/04/02 08:46:31;;;;;;;3.57;2.70;;;;;;;;;;4986082;28;20241;-57
2022/04/02 08:48:58;;;;;;;4.43;2.80;;;;;;;;;;4988119;28;20501;-58
2022/04/02 08:51:33;;;;;;;3.87;3.10;;;;;;;;;;4998662;28;20200;-58
2022/04/02 08:54:04;;;;;;;3.10;2.57;;;;;;;;;;4999551;28;21107;-57
2022/04/02 08:56:30;;;;;;;2.90;2.60;;;;;;;;;;4995628;28;20188;-57
2022/04/02 08:59:01;;;;;;;3.30;2.50;;;;;;;;;;5004365;28;20204;-58
2022/04/02 09:01:43;;;;;;;3.50;2.70;;;;;;;;;;5007372;28;20696;-57
2022/04/02 09:04:25;;;;;;;3.03;2.70;;;;;;;;;;5004663;28;20197;-57
2022/04/02 09:07:07;;;;;;;3.17;2.80;;;;;;;;;;5005112;28;20271;-57
2022/04/02 09:09:52;;;;;;;4.30;2.90;;;;;;;;;;5006266;28;20585;-57
2022/04/02 09:12:38;;;;;;;2.87;2.60;;;;;;;;;;4996337;28;20190;-58
2022/04/02 09:15:08;;;;;;;3.87;3.10;;;;;;;;;;5001107;28;20198;-58
2022/04/02 09:17:35;;;;;;;4.77;2.70;;;;;;;;;;5001748;28;20209;-58
2022/04/02 09:20:18;;;;;;;5.30;2.80;;;;;;;;;;5004718;28;20228;-58
2022/04/02 09:23:03;;;;;;;4.80;3.20;;;;;;;;;;5004893;28;20735;-58
2022/04/02 09:25:41;;;;;;;3.50;3.00;;;;;;;;;;5001307;28;20221;-58
2022/04/02 09:28:28;;;;;;;5.10;3.27;;;;;;;;;;5011777;28;20196;-58
2022/04/02 09:30:57;;;;;;;2.70;2.50;;;;;;;;;;5017492;28;20181;-57
2022/04/02 09:33:30;;;;;;;5.10;2.97;;;;;;;;;;5008875;28;20201;-58
2022/04/02 09:36:15;;;;;;;3.67;2.73;;;;;;;;;;5016792;28;20201;-57
2022/04/02 09:38:45;;;;;;;3.53;2.83;;;;;;;;;;5010077;28;20196;-58
2022/04/02 09:41:17;;;;;;;3.63;2.70;;;;;;;;;;5010156;28;20190;-57
2022/04/02 09:43:49;;;;;;;3.37;2.70;;;;;;;;;;5008181;28;20220;-58
2022/04/02 09:46:24;;;;;;;3.13;2.70;;;;;;;;;;5001193;28;20216;-57
2022/04/02 09:48:53;;;;;;;4.23;3.20;;;;;;;;;;5005193;28;20185;-57
2022/04/02 09:51:21;;;;;;;2.97;2.67;;;;;;;;;;5006042;28;20189;-58
2022/04/02 09:54:15;;;;;;;5.37;3.03;;;;;;;;;;4993395;28;20186;-58
2022/04/02 09:56:41;;;;;;;6.83;3.20;;;;;;;;;;5005974;28;20198;-58
2022/04/02 09:59:12;;;;;;;5.43;3.13;;;;;;;;;;5003682;28;20263;-58
2022/04/02 10:01:49;;;;;;;3.33;2.83;;;;;;;;;;5005027;28;20662;-57
2022/04/02 10:04:35;;;;;;;3.60;2.87;;;;;;;;;;5007913;28;20560;-58
2022/04/02 10:07:03;;;;;;;4.13;3.40;;;;;;;;;;5006332;28;20697;-58
2022/04/02 10:09:31;;;;;;;5.10;3.10;;;;;;;;;;5012888;28;20651;-58
2022/04/02 10:12:01;;;;;;;3.63;3.13;;;;;;;;;;5013755;28;20201;-58
2022/04/02 10:14:32;;;;;;;3.73;2.90;;;;;;;;;;5015897;28;20189;-57
2022/04/02 10:17:01;;;;;;;5.50;3.60;;;;;;;;;;5010682;28;20251;-58
2022/04/02 10:19:30;;;;;;;3.47;2.97;;;;;;;;;;5006987;28;20201;-58
2022/04/02 10:22:17;;;;;;;4.57;3.20;;;;;;;;;;5000444;28;20212;-58
2022/04/02 10:24:49;;;;;;;3.23;2.93;;;;;;;;;;4988008;28;20512;-57
2022/04/02 10:27:30;;;;;;;4.50;3.20;;;;;;;;;;5003956;28;20744;-58
2022/04/02 10:29:56;;;;;;;3.30;2.87;;;;;;;;;;5025928;28;20194;-58
2022/04/02 10:32:41;;;;;;;3.67;2.83;;;;;;;;;;5014755;28;20316;-58
2022/04/02 10:35:08;;;;;;;4.13;2.97;;;;;;;;;;5009792;28;20644;-58
2022/04/02 10:38:00;;;;;;;11.17;3.17;;;;;;;;;;5007007;28;20662;-58
2022/04/02 10:40:26;;;;;;;8.50;3.53;;;;;;;;;;5014786;28;20212;-57
2022/04/02 10:42:55;;;;;;;8.07;3.63;;;;;;;;;;5010245;28;20194;-58
2022/04/02 10:45:21;;;;;;;4.00;3.07;;;;;;;;;;5007497;28;20192;-58
2022/04/02 10:47:47;;;;;;;5.90;3.63;;;;;;;;;;5004394;28;20268;-58
2022/04/02 10:50:15;;;;;;;3.87;3.00;;;;;;;;;;5002822;28;20567;-58
2022/04/02 10:52:41;;;;;;;4.03;3.00;;;;;;;;;;5005847;28;20240;-57
2022/04/02 10:55:07;;;;;;;4.43;2.87;;;;;;;;;;5007749;28;20189;-58
2022/04/02 10:57:34;;;;;;;4.33;2.90;;;;;;;;;;5004207;28;20217;-57
2022/04/02 11:00:00;;;;;;;4.43;3.27;;;;;;;;;;5000904;28;20189;-59
2022/04/02 11:02:29;;;;;;;5.70;3.50;;;;;;;;;;5004451;28;20220;-58
2022/04/02 11:04:57;;;;;;;3.47;2.93;;;;;;;;;;4990755;28;20578;-58
2022/04/02 11:07:35;;;;;;;4.60;3.80;;;;;;;;;;4992937;28;20567;-58
2022/04/02 11:10:01;;;;;;;5.37;3.60;;;;;;;;;;4992614;28;20213;-58
2022/04/02 11:12:28;;;;;;;5.77;3.40;;;;;;;;;;4998518;28;20398;-58
2022/04/02 11:14:54;;;;;;;4.27;3.33;;;;;;;;;;4994487;28;20189;-59
2022/04/02 11:17:34;;;;;;;3.77;3.43;;;;;;;;;;4999240;28;20287;-59
2022/04/02 11:20:08;;;;;;;3.47;3.10;;;;;;;;;;4998538;28;20201;-57
2022/04/02 11:22:43;;;;;;;3.63;3.10;;;;;;;;;;5006246;28;20332;-58
2022/04/02 11:25:15;;;;;;;4.73;3.37;;;;;;;;;;5004184;28;20204;-58
2022/04/02 11:27:41;;;;;;;2.93;2.70;;;;;;;;;;5008181;28;20208;-58
2022/04/02 11:30:10;;;;;;;3.70;3.07;;;;;;;;;;5001986;28;20186;-58
2022/04/02 11:32:39;;;;;;;3.97;2.93;;;;;;;;;;4999859;28;20231;-57
2022/04/02 11:35:15;;;;;;;3.33;2.70;;;;;;;;;;5002154;28;20820;-58
2022/04/02 11:37:53;;;;;;;4.77;2.97;;;;;;;;;;5004584;28;20189;-58
2022/04/02 11:40:20;;;;;;;5.80;3.20;;;;;;;;;;4999497;28;20185;-58
2022/04/02 11:42:46;;;;;;;3.50;3.20;;;;;;;;;;5006301;28;20198;-58
2022/04/02 11:45:16;;;;;;;3.57;3.10;;;;;;;;;;5000733;28;21963;-58
2022/04/02 11:47:46;;;;;;;4.17;3.20;;;;;;;;;;5001272;28;20186;-58
2022/04/02 11:50:12;;;;;;;5.23;3.47;;;;;;;;;;5006347;28;20650;-59
2022/04/02 11:52:58;;;;;;;3.30;3.00;;;;;;;;;;5007657;28;20196;-58
2022/04/02 11:55:24;;;;;;;4.27;3.87;;;;;;;;;;4998869;28;20927;-58
2022/04/02 11:58:04;;;;;;;4.30;3.90;;;;;;;;;;5000910;28;20655;-58
2022/04/02 12:00:34;;;;;;;3.97;3.40;;;;;;;;;;5007184;28;20227;-58
2022/04/02 12:03:00;;;;;;;4.03;3.50;;;;;;;;;;5007412;28;20576;-58
2022/04/02 12:05:55;;;;;;;4.83;4.03;;;;;;;;;;5001403;28;20185;-58
2022/04/02 12:08:28;;;;;;;5.83;3.63;;;;;;;;;;5006046;28;20607;-58
2022/04/02 12:10:54;;;;;;;3.50;3.20;;;;;;;;;;5002795;28;20201;-58
2022/04/02 12:13:21;;;;;;;4.83;3.33;;;;;;;;;;5006181;28;20196;-58
2022/04/02 12:16:15;;;;;;;4.17;3.07;;;;;;;;;;5005570;28;20196;-57
2022/04/02 12:19:00;;;;;;;4.07;3.30;;;;;;;;;;5002998;28;20801;-58
2022/04/02 12:21:35;;;;;;;4.57;3.47;;;;;;;;;;5007059;28;20189;-58
2022/04/02 12:24:01;;;;;;;4.27;3.17;;;;;;;;;;4995398;28;20197;-58
2022/04/02 12:26:28;;;;;;;3.20;2.90;;;;;;;;;;5000982;28;20332;-58
2022/04/02 12:29:03;;;;;;;2.97;2.73;;;;;;;;;;4995045;28;20674;-58
2022/04/02 12:31:31;;;;;;;4.23;3.20;;;;;;;;;;5002848;28;20678;-58
2022/04/02 12:33:57;;;;;;;6.10;3.10;;;;;;;;;;4999607;28;20194;-58
2022/04/02 12:36:29;;;;;;;3.10;2.80;;;;;;;;;;4993103;28;20625;-58
2022/04/02 12:39:16;;;;;;;3.43;2.80;;;;;;;;;;4986164;28;20221;-58
2022/04/02 12:41:45;;;;;;;4.13;3.30;;;;;;;;;;4990301;28;21366;-58
2022/04/02 12:44:11;;;;;;;3.80;3.30;;;;;;;;;;4989677;28;20284;-58
2022/04/02 12:46:37;;;;;;;4.20;3.20;;;;;;;;;;4998994;28;20725;-58
2022/04/02 12:49:03;;;;;;;3.87;3.00;;;;;;;;;;4994812;28;20637;-59
2022/04/02 12:51:29;;;;;;;3.57;3.20;;;;;;;;;;5003586;28;20856;-58
2022/04/02 12:53:59;;;;;;;4.00;3.60;;;;;;;;;;4996714;28;20194;-58
2022/04/02 12:56:26;;;;;;;4.10;2.97;;;;;;;;;;4994990;28;20197;-58
2022/04/02 12:58:52;;;;;;;4.57;3.03;;;;;;;;;;4995156;28;20231;-58
2022/04/02 13:01:25;;;;;;;3.17;2.87;;;;;;;;;;4998075;28;20196;-58
2022/04/02 13:03:54;;;;;;;3.20;2.90;;;;;;;;;;4990011;28;20308;-58
2022/04/02 13:06:24;;;;;;;4.10;3.10;;;;;;;;;;5000813;28;20247;-58
2022/04/02 13:08:57;;;;;;;4.60;3.20;;;;;;;;;;5003104;28;20672;-58
2022/04/02 13:11:42;;;;;;;3.07;2.80;;;;;;;;;;4996413;28;20193;-58
2022/04/02 13:14:18;;;;;;;3.27;2.80;;;;;;;;;;4995176;28;20193;-58
2022/04/02 13:16:45;;;;;;;4.43;2.50;;;;;;;;;;4987218;28;20185;-59
2022/04/02 13:22:12;;;;;;;3.17;2.70;;;;;;;;;;4989992;28;20264;-59
2022/04/02 13:24:55;;;;;;;2.73;2.50;;;;;;;;;;4988182;28;20189;-58
2022/04/02 13:27:36;;;;;;;3.80;3.43;;;;;;;;;;5002950;28;20245;-58
2022/04/02 13:30:02;;;;;;;3.93;3.17;;;;;;;;;;5004254;28;20188;-58
2022/04/02 13:32:51;;;;;;;2.90;2.70;;;;;;;;;;5006470;28;20195;-58
2022/04/02 13:35:35;;;;;;;3.60;3.10;;;;;;;;;;4995252;28;20202;-58
2022/04/02 13:38:13;;;;;;;3.70;3.37;;;;;;;;;;5001743;28;20284;-59
2022/04/02 13:40:39;;;;;;;4.00;3.20;;;;;;;;;;5003590;28;20207;-59
2022/04/02 13:43:06;;;;;;;3.67;3.10;;;;;;;;;;4993237;28;20566;-59
2022/04/02 13:45:34;;;;;;;3.90;3.13;;;;;;;;;;4989981;28;20559;-59
2022/04/02 13:48:04;;;;;;;3.47;3.17;;;;;;;;;;4987004;28;20560;-58
2022/04/02 13:50:30;;;;;;;3.43;2.87;;;;;;;;;;4996897;28;20608;-58
2022/04/02 13:53:04;;;;;;;3.30;3.00;;;;;;;;;;5002278;28;20689;-58
2022/04/02 13:55:30;;;;;;;3.83;3.00;;;;;;;;;;4991215;28;20201;-58
2022/04/02 13:57:56;;;;;;;3.47;3.17;;;;;;;;;;4995664;28;20607;-59
2022/04/02 14:00:22;;;;;;;4.07;3.17;;;;;;;;;;4994329;28;20243;-58
2022/04/02 14:02:49;;;;;;;3.17;2.97;;;;;;;;;;4990044;28;20264;-59
2022/04/02 14:05:28;;;;;;;3.10;2.80;;;;;;;;;;4982320;28;20186;-58
2022/04/02 14:08:14;;;;;;;2.93;2.70;;;;;;;;;;4995000;28;20226;-59
2022/04/02 14:10:41;;;;;;;3.27;2.97;;;;;;;;;;4993410;28;20561;-58
2022/04/02 14:13:15;;;;;;;3.33;3.00;;;;;;;;;;4998298;28;20193;-59
2022/04/02 14:16:02;;;;;;;2.93;2.73;;;;;;;;;;4992176;28;20196;-59
2022/04/02 14:18:29;;;;;;;3.07;2.80;;;;;;;;;;4986528;28;20819;-58
2022/04/02 14:20:55;;;;;;;3.63;3.27;;;;;;;;;;4998795;28;20189;-58
2022/04/02 14:23:22;;;;;;;2.90;2.47;;;;;;;;;;4995684;28;20224;-59
2022/04/02 14:26:15;;;;;;;2.90;2.70;;;;;;;;;;4985446;28;20776;-58
2022/04/02 14:28:42;;;;;;;2.90;2.70;;;;;;;;;;5007233;28;20650;-58
2022/04/02 14:31:21;;;;;;;4.77;2.80;;;;;;;;;;5005900;28;20196;-58
2022/04/02 14:34:10;;;;;;;3.30;3.00;;;;;;;;;;5006196;28;20268;-59
2022/04/02 14:36:55;;;;;;;2.93;2.60;;;;;;;;;;5000779;28;20205;-59
2022/04/02 14:39:40;;;;;;;2.80;2.60;;;;;;;;;;5006599;28;20866;-58
2022/04/02 14:42:07;;;;;;;2.63;2.43;;;;;;;;;;4999374;28;20201;-59
2022/04/02 14:44:52;;;;;;;3.17;2.57;;;;;;;;;;4997905;28;20204;-59
2022/04/02 14:47:44;;;;;;;2.70;2.50;;;;;;;;;;4992255;28;20217;-59
2022/04/02 14:50:28;;;;;;;3.13;2.60;;;;;;;;;;5012199;28;20223;-59
2022/04/02 14:53:03;;;;;;;3.23;2.57;;;;;;;;;;5002119;28;20251;-58
2022/04/02 14:55:37;;;;;;;3.83;2.43;;;;;;;;;;4998844;28;24905;-59
2022/04/02 14:58:12;;;;;;;2.93;2.70;;;;;;;;;;4999389;28;20279;-59
2022/04/02 15:01:05;;;;;;;3.17;2.83;;;;;;;;;;5006518;28;20196;-59
2022/04/02 15:03:43;;;;;;;3.63;2.90;;;;;;;;;;5002396;28;20906;-59
2022/04/02 15:06:10;;;;;;;3.70;3.30;;;;;;;;;;4995813;28;20221;-58
2022/04/02 15:08:36;;;;;;;3.03;2.83;;;;;;;;;;4998630;28;20194;-58